Time;durP1;ratioP1;P1;durP2;ratioP2;P2;SDS_P1;SDS_P2;PMS_P1;PMS_P2;Temp;Humidity;BMP_temperature;BMP_pressure;BME280_temperature;BME280_humidity;BME280_pressure;Samples;Min_cycle;Max_cycle;Signal;HPM_P1;HPM_P2
2022/01/25 00:08:45;;;;;;;70.40;43.07;;;;;;;1.03;92.56;103384.25;5050835;28;20051;-63
2022/01/25 00:25:05;;;;;;;73.50;43.07;;;;;;;0.97;92.51;103399.22;5049400;28;20063;-63
2022/01/25 00:27:47;;;;;;;74.53;42.10;;;;;;;1.00;92.95;103391.31;5044524;28;20126;-62
2022/01/25 00:30:27;;;;;;;74.37;42.70;;;;;;;1.01;92.79;103385.19;5045931;28;20542;-62
2022/01/25 00:32:52;;;;;;;73.53;42.57;;;;;;;1.05;93.00;103392.06;5047954;28;20107;-63
2022/01/25 00:35:18;;;;;;;71.47;42.77;;;;;;;1.06;93.02;103389.44;5052477;28;20120;-63
2022/01/25 00:37:43;;;;;;;69.80;40.80;;;;;;;1.08;93.38;103402.44;5053583;28;20465;-63
2022/01/25 00:40:09;;;;;;;67.17;41.30;;;;;;;1.08;93.06;103399.81;5054502;28;20083;-63
2022/01/25 00:42:34;;;;;;;70.43;41.37;;;;;;;1.08;92.66;103391.97;5051663;28;20056;-63
2022/01/25 00:44:59;;;;;;;68.63;40.93;;;;;;;1.11;93.10;103386.69;5052239;28;20021;-62
2022/01/25 00:47:25;;;;;;;70.83;41.43;;;;;;;1.11;92.96;103397.16;5052231;28;20024;-62
2022/01/25 00:49:53;;;;;;;69.23;41.30;;;;;;;1.09;92.74;103388.50;5054453;28;20025;-63
2022/01/25 00:52:24;;;;;;;69.63;41.23;;;;;;;1.10;93.03;103385.00;5050486;28;20037;-63
2022/01/25 00:54:52;;;;;;;69.67;41.30;;;;;;;1.06;93.18;103383.34;5051920;28;20021;-63
2022/01/25 00:57:17;;;;;;;68.33;40.53;;;;;;;1.10;92.94;103385.00;5042033;28;20032;-63
2022/01/25 00:59:43;;;;;;;70.00;40.30;;;;;;;1.13;93.10;103378.84;5048808;28;20040;-63
2022/01/25 01:02:12;;;;;;;67.73;39.47;;;;;;;1.12;93.44;103383.19;5049979;28;20028;-62
2022/01/25 01:04:41;;;;;;;66.27;39.57;;;;;;;1.15;93.23;103383.13;5044568;28;20147;-63
2022/01/25 01:07:08;;;;;;;68.30;40.33;;;;;;;1.16;93.74;103379.63;5048752;28;20040;-62
2022/01/25 01:09:36;;;;;;;66.83;39.67;;;;;;;1.11;93.54;103378.84;5052666;28;20033;-63
2022/01/25 01:12:07;;;;;;;66.53;39.93;;;;;;;1.09;93.70;103377.19;5052762;28;20119;-63
2022/01/25 01:15:01;;;;;;;71.50;40.43;;;;;;;1.05;93.48;103376.38;5052106;28;20353;-61
2022/01/25 01:31:16;;;;;;;62.43;36.87;;;;;;;1.15;94.43;103388.34;5050381;28;20036;-63
2022/01/25 01:36:31;;;;;;;59.63;35.97;;;;;;;1.17;94.41;103391.78;5045172;28;20041;-63
2022/01/25 01:39:33;;;;;;;57.93;34.77;;;;;;;1.19;94.25;103392.59;5045053;28;20456;-63
2022/01/25 01:47:36;;;;;;;61.77;36.07;;;;;;;1.17;94.50;103391.78;5050311;28;20041;-63
2022/01/25 01:50:08;;;;;;;63.73;37.77;;;;;;;1.14;94.71;103397.06;5047138;28;20029;-63
2022/01/25 01:52:33;;;;;;;65.50;37.67;;;;;;;1.16;94.51;103394.44;5050767;28;20029;-63
2022/01/25 01:54:58;;;;;;;64.30;37.97;;;;;;;1.18;94.74;103393.50;5050158;28;20476;-63
2022/01/25 01:57:24;;;;;;;64.90;38.57;;;;;;;1.16;94.85;103390.06;5045898;28;20109;-61
2022/01/25 01:59:49;;;;;;;65.97;38.47;;;;;;;1.19;94.77;103400.44;5052483;28;20063;-62
2022/01/25 02:02:15;;;;;;;63.37;38.77;;;;;;;1.21;94.83;103392.56;5049021;28;20051;-63
2022/01/25 02:04:40;;;;;;;67.93;40.40;;;;;;;1.22;94.66;103398.66;5043942;28;20510;-62
2022/01/25 02:07:05;;;;;;;67.37;39.37;;;;;;;1.25;94.81;103395.97;5050270;28;20429;-62
2022/01/25 02:09:32;;;;;;;67.80;39.83;;;;;;;1.25;95.02;103391.59;5043817;28;20021;-63
2022/01/25 02:11:58;;;;;;;66.30;39.40;;;;;;;1.27;94.82;103387.19;5051267;28;20058;-62
2022/01/25 02:14:23;;;;;;;67.77;40.30;;;;;;;1.32;94.93;103387.06;5044528;28;20518;-62
2022/01/25 02:24:44;;;;;;;68.63;39.97;;;;;;;1.31;94.99;103385.34;5048964;28;20068;-63
2022/01/25 02:27:10;;;;;;;67.90;40.43;;;;;;;1.32;95.34;103379.22;5046146;28;20437;-62
2022/01/25 02:29:36;;;;;;;70.27;40.50;;;;;;;1.31;95.09;103377.50;5049924;28;20446;-63
2022/01/25 02:32:02;;;;;;;68.23;39.87;;;;;;;1.35;95.21;103373.94;5044294;28;20043;-63
2022/01/25 02:34:27;;;;;;;72.63;41.57;;;;;;;1.38;95.17;103368.63;5049340;28;20116;-63
2022/01/25 02:37:07;;;;;;;72.33;42.50;;;;;;;1.36;95.24;103370.41;5045961;28;20036;-63
2022/01/25 02:39:34;;;;;;;73.70;42.60;;;;;;;1.35;94.76;103368.69;5036645;28;20034;-62
2022/01/25 02:41:59;;;;;;;73.77;42.57;;;;;;;1.37;95.20;103360.84;5051799;28;20046;-63
2022/01/25 02:44:27;;;;;;;73.33;42.13;;;;;;;1.39;94.70;103365.13;5042170;28;20464;-62
2022/01/25 02:49:30;;;;;;;74.00;42.03;;;;;;;1.44;94.87;103358.00;5051116;28;20093;-63
2022/01/25 02:51:55;;;;;;;70.80;42.30;;;;;;;1.45;94.58;103359.75;5054842;28;20430;-62
2022/01/25 02:54:21;;;;;;;74.87;43.13;;;;;;;1.48;94.74;103364.88;5046865;28;20034;-63
2022/01/25 02:56:47;;;;;;;73.63;42.47;;;;;;;1.51;94.77;103353.47;5047246;28;20150;-62
2022/01/25 02:59:14;;;;;;;76.93;44.17;;;;;;;1.47;94.62;103352.69;5044463;28;20033;-63
2022/01/25 03:01:41;;;;;;;78.13;45.23;;;;;;;1.41;94.09;103347.63;5046664;28;20121;-61
2022/01/25 03:04:07;;;;;;;75.63;42.77;;;;;;;1.42;94.57;103358.94;5054078;28;20044;-63
2022/01/25 03:06:33;;;;;;;77.30;42.50;;;;;;;1.39;94.86;103354.66;5048627;28;20132;-62
2022/01/25 03:08:59;;;;;;;71.20;40.90;;;;;;;1.39;94.87;103354.66;5053970;28;20449;-63
2022/01/25 03:11:25;;;;;;;74.57;42.77;;;;;;;1.43;95.21;103353.66;5051037;28;20078;-63
2022/01/25 03:13:56;;;;;;;73.23;41.00;;;;;;;1.40;95.08;103345.91;5047718;28;20025;-63
2022/01/25 03:19:02;;;;;;;66.80;38.60;;;;;;;1.45;94.91;103337.94;5050238;28;20036;-63
2022/01/25 03:23:55;;;;;;;64.77;38.37;;;;;;;1.50;94.96;103335.19;5052300;28;20116;-63
2022/01/25 03:26:21;;;;;;;66.27;39.03;;;;;;;1.52;95.15;103343.88;5047598;28;20041;-62
2022/01/25 03:28:47;;;;;;;72.17;40.40;;;;;;;1.48;95.21;103338.72;5049670;28;20103;-62
2022/01/25 03:31:13;;;;;;;76.63;42.53;;;;;;;1.46;94.83;103340.53;5048069;28;20754;-63
2022/01/25 03:33:39;;;;;;;69.80;40.03;;;;;;;1.46;95.24;103343.16;5057565;28;20040;-62
2022/01/25 03:36:07;;;;;;;69.33;41.20;;;;;;;1.43;94.87;103334.53;5051824;28;20388;-62
2022/01/25 03:38:34;;;;;;;65.23;38.03;;;;;;;1.48;95.25;103332.63;5054791;28;20029;-62
2022/01/25 03:41:00;;;;;;;68.70;40.20;;;;;;;1.50;95.43;103335.19;5040527;28;20064;-63
2022/01/25 03:43:25;;;;;;;70.90;40.50;;;;;;;1.53;95.07;103332.53;5051829;28;20059;-63
2022/01/25 03:46:00;;;;;;;73.30;42.10;;;;;;;1.53;95.59;103330.75;5053161;28;20029;-62
2022/01/25 03:50:51;;;;;;;68.33;40.27;;;;;;;1.45;95.57;103338.81;5052915;28;20083;-63
2022/01/25 03:53:18;;;;;;;73.43;39.93;;;;;;;1.39;95.54;103331.13;5053473;28;20635;-63
2022/01/25 03:55:45;;;;;;;66.57;38.67;;;;;;;1.36;95.53;103333.81;5048962;28;20041;-63
2022/01/25 03:58:10;;;;;;;71.20;40.70;;;;;;;1.39;95.66;103333.75;5048498;28;20433;-62
2022/01/25 04:00:37;;;;;;;71.53;40.27;;;;;;;1.42;95.66;103336.25;5050399;28;20065;-63
2022/01/25 04:03:08;;;;;;;72.50;40.17;;;;;;;1.40;96.10;103338.06;5051908;28;20033;-62
2022/01/25 04:05:56;;;;;;;68.77;38.43;;;;;;;1.44;95.74;103346.69;5053309;28;20052;-62
2022/01/25 04:08:19;;;;;;;73.63;39.90;;;;;;;1.47;96.07;103342.25;5053483;28;20040;-62
2022/01/25 04:10:47;;;;;;;66.77;38.47;;;;;;;1.52;96.09;103349.13;5055218;28;20029;-63
2022/01/25 04:13:12;;;;;;;60.27;36.13;;;;;;;1.54;96.13;103349.94;5051333;28;20033;-63
2022/01/25 04:15:45;;;;;;;63.00;37.13;;;;;;;1.53;96.36;103343.00;5051985;28;20481;-63
2022/01/25 04:20:57;;;;;;;62.90;36.57;;;;;;;1.52;95.68;103349.13;5050570;28;20040;-63
2022/01/25 04:26:06;;;;;;;60.07;35.20;;;;;;;1.52;95.98;103349.13;5049508;28;20126;-62
2022/01/25 04:28:31;;;;;;;63.20;36.33;;;;;;;1.53;96.18;103335.13;5055284;28;20715;-62
2022/01/25 04:30:56;;;;;;;67.80;38.87;;;;;;;1.51;95.77;103336.91;5047294;28;20040;-63
2022/01/25 04:33:26;;;;;;;65.43;37.80;;;;;;;1.55;96.10;103334.19;5050740;28;20039;-63
2022/01/25 04:36:12;;;;;;;70.23;39.07;;;;;;;1.55;95.96;103328.09;5048860;28;20033;-63
2022/01/25 04:49:55;;;;;;;67.60;38.80;;;;;;;1.60;96.27;103331.47;5042533;28;20117;-63
2022/01/25 04:52:24;;;;;;;66.63;38.00;;;;;;;1.61;95.98;103330.56;5052055;28;20025;-63
2022/01/25 05:05:09;;;;;;;71.47;39.90;;;;;;;1.53;96.00;103325.53;5044116;28;20049;-63
2022/01/25 05:07:46;;;;;;;76.13;42.30;;;;;;;1.57;95.72;103323.69;5050237;28;20085;-63
2022/01/25 05:10:11;;;;;;;76.00;41.03;;;;;;;1.59;95.54;103314.88;5047394;28;20072;-63
2022/01/25 05:12:50;;;;;;;76.87;41.87;;;;;;;1.60;95.95;103332.31;5041243;28;20476;-63
2022/01/25 05:15:59;;;;;;;78.00;41.63;;;;;;;1.65;96.17;103321.72;5052248;28;20484;-63
2022/01/25 05:23:24;;;;;;;76.30;41.67;;;;;;;1.63;96.04;103315.66;5046641;28;20035;-62
2022/01/25 05:25:49;;;;;;;79.20;42.10;;;;;;;1.64;95.87;103322.63;5051468;28;20481;-63
2022/01/25 05:28:15;;;;;;;77.87;42.57;;;;;;;1.66;96.01;103318.22;5043810;28;20462;-63
2022/01/25 05:30:40;;;;;;;71.53;40.50;;;;;;;1.65;96.04;103326.09;5047071;28;20154;-62
2022/01/25 05:33:06;;;;;;;75.70;41.13;;;;;;;1.65;95.67;103318.25;5045145;28;20025;-61
2022/01/25 05:35:31;;;;;;;81.60;43.63;;;;;;;1.65;95.73;103319.13;5048852;28;20033;-63
2022/01/25 05:37:56;;;;;;;80.03;43.17;;;;;;;1.67;96.01;103319.09;5049659;28;20103;-63
2022/01/25 05:40:42;;;;;;;79.47;43.07;;;;;;;1.68;95.96;103321.63;5041360;28;20025;-62
2022/01/25 05:48:23;;;;;;;82.70;42.85;;;;;;;1.71;95.52;103308.50;5042779;28;20069;-61
2022/01/25 05:50:48;;;;;;;79.80;44.83;;;;;;;1.73;95.81;103316.31;5050575;28;20495;-63
2022/01/25 05:53:13;;;;;;;71.40;39.23;;;;;;;1.76;95.94;103315.34;5051451;28;20116;-62
2022/01/25 05:55:39;;;;;;;75.23;41.20;;;;;;;1.75;95.52;103317.09;5038207;28;20119;-62
2022/01/25 05:58:04;;;;;;;86.37;45.60;;;;;;;1.72;95.20;103318.03;5036871;28;20038;-62
2022/01/25 06:00:29;;;;;;;86.63;42.27;;;;;;;1.71;95.38;103312.84;5038942;28;20028;-62
2022/01/25 06:02:56;;;;;;;73.77;40.50;;;;;;;1.73;95.69;103306.69;5040118;28;20044;-60
2022/01/25 06:05:23;;;;;;;76.27;41.20;;;;;;;1.76;95.81;103304.91;5035213;28;20122;-62
2022/01/25 06:07:49;;;;;;;81.50;42.43;;;;;;;1.76;95.72;103310.13;5037401;28;20053;-63
2022/01/25 06:10:14;;;;;;;85.37;44.67;;;;;;;1.77;96.02;103312.69;5037503;28;20036;-63
2022/01/25 06:12:42;;;;;;;81.07;43.53;;;;;;;1.81;96.12;103313.44;5040686;28;20025;-63
2022/01/25 06:15:08;;;;;;;69.47;39.00;;;;;;;1.83;96.03;103311.66;5033569;28;20091;-63
2022/01/25 06:17:34;;;;;;;81.53;45.13;;;;;;;1.79;95.64;103313.50;5042125;28;20055;-63
2022/01/25 06:19:59;;;;;;;92.40;44.67;;;;;;;1.78;95.33;103310.94;5041050;28;20063;-63
2022/01/25 06:22:24;;;;;;;84.60;43.47;;;;;;;1.76;95.38;103307.50;5036971;28;20061;-62
2022/01/25 06:24:49;;;;;;;75.67;42.07;;;;;;;1.77;95.51;103309.22;5041981;28;20037;-63
2022/01/25 06:27:15;;;;;;;88.93;45.37;;;;;;;1.77;95.45;103311.84;5039479;28;20630;-63
2022/01/25 06:29:41;;;;;;;98.37;47.77;;;;;;;1.81;94.74;103313.44;5041301;28;20041;-63
2022/01/25 06:32:06;;;;;;;80.63;43.17;;;;;;;1.81;95.14;103313.44;5036600;28;20083;-63
2022/01/25 06:34:32;;;;;;;81.93;43.67;;;;;;;1.83;95.05;103306.44;5043016;28;20029;-63
2022/01/25 06:36:58;;;;;;;85.50;44.47;;;;;;;1.85;95.34;103304.63;5037963;28;20461;-62
2022/01/25 06:39:23;;;;;;;85.23;44.87;;;;;;;1.86;95.47;103316.81;5036892;28;20045;-60
2022/01/25 06:41:48;;;;;;;90.03;46.47;;;;;;;1.86;94.92;103319.41;5036752;28;20033;-63
2022/01/25 06:44:13;;;;;;;80.63;43.07;;;;;;;1.89;95.21;103316.72;5036218;28;20392;-62
2022/01/25 06:46:39;;;;;;;86.90;43.17;;;;;;;1.88;95.14;103315.00;5051588;28;20511;-62
2022/01/25 06:49:04;;;;;;;80.53;42.17;;;;;;;1.90;95.26;103318.44;5045260;28;20065;-62
2022/01/25 06:51:30;;;;;;;83.57;43.83;;;;;;;1.88;95.02;103317.63;5040505;28;20079;-62
2022/01/25 06:53:55;;;;;;;87.10;44.80;;;;;;;1.86;95.00;103312.44;5038269;28;20036;-63
2022/01/25 06:56:21;;;;;;;83.47;43.77;;;;;;;1.88;94.91;103320.25;5037362;28;20492;-62
2022/01/25 06:58:46;;;;;;;87.37;45.83;;;;;;;1.90;95.03;103310.59;5038990;28;20033;-62
2022/01/25 07:01:13;;;;;;;82.93;44.17;;;;;;;1.87;95.04;103321.13;5040406;28;20044;-62
2022/01/25 07:03:38;;;;;;;85.83;46.43;;;;;;;1.89;94.91;103327.19;5038909;28;20529;-62
2022/01/25 07:06:03;;;;;;;89.57;46.70;;;;;;;1.86;94.99;103316.81;5036891;28;20040;-62
2022/01/25 07:08:29;;;;;;;84.93;45.73;;;;;;;1.90;94.91;103328.91;5036498;28;20047;-62
2022/01/25 07:10:54;;;;;;;92.73;47.63;;;;;;;1.90;94.45;103331.53;5038594;28;20029;-62
2022/01/25 07:13:19;;;;;;;91.37;47.03;;;;;;;1.90;94.02;103339.38;5036516;28;20378;-62
2022/01/25 07:15:45;;;;;;;89.87;47.40;;;;;;;1.87;93.77;103332.47;5039068;28;20400;-62
2022/01/25 07:18:10;;;;;;;90.57;47.80;;;;;;;1.90;94.03;103334.13;5040838;28;20392;-62
2022/01/25 07:20:35;;;;;;;89.77;47.53;;;;;;;1.91;93.89;103333.22;5037009;28;20041;-63
2022/01/25 07:23:00;;;;;;;90.23;47.87;;;;;;;1.93;94.20;103325.34;5041944;28;20033;-62
2022/01/25 07:25:26;;;;;;;94.27;48.43;;;;;;;1.93;93.43;103331.41;5044455;28;20025;-63
2022/01/25 07:27:52;;;;;;;96.10;48.77;;;;;;;1.94;92.83;103327.94;5037520;28;20094;-62
2022/01/25 07:30:17;;;;;;;92.57;48.60;;;;;;;1.92;92.92;103331.50;5033798;28;20032;-62
2022/01/25 07:32:42;;;;;;;94.43;49.20;;;;;;;1.94;93.15;103335.78;5036923;28;20519;-64
2022/01/25 07:35:08;;;;;;;90.00;48.40;;;;;;;1.93;92.58;103333.19;5042423;28;20056;-63
2022/01/25 07:37:34;;;;;;;93.50;47.80;;;;;;;1.96;92.67;103333.97;5037246;28;20152;-64
2022/01/25 07:39:59;;;;;;;91.03;48.03;;;;;;;1.98;92.35;103333.94;5043299;28;20025;-63
2022/01/25 07:42:27;;;;;;;93.80;48.83;;;;;;;1.97;92.32;103330.44;5040836;28;20113;-63
2022/01/25 07:44:52;;;;;;;88.77;48.43;;;;;;;1.96;92.40;103333.97;5038790;28;20029;-63
2022/01/25 07:47:17;;;;;;;95.10;49.50;;;;;;;1.97;92.58;103337.47;5041198;28;20388;-63
2022/01/25 07:49:43;;;;;;;93.63;48.57;;;;;;;1.97;92.50;103338.28;5039606;28;20171;-64
2022/01/25 07:52:08;;;;;;;93.90;48.50;;;;;;;2.00;91.71;103335.59;5035963;28;20034;-63
2022/01/25 07:54:33;;;;;;;94.10;49.30;;;;;;;2.01;92.77;103342.56;5043730;28;20029;-63
2022/01/25 07:56:59;;;;;;;96.13;48.33;;;;;;;2.04;91.94;103338.13;5039857;28;20033;-64
2022/01/25 07:59:24;;;;;;;94.50;49.77;;;;;;;2.06;nan;103344.19;5039168;28;20108;-62
2022/01/25 08:01:51;;;;;;;94.37;49.83;;;;;;;2.01;91.24;103332.09;5037155;28;20034;-63
2022/01/25 08:04:17;;;;;;;96.40;49.53;;;;;;;2.05;91.50;103343.31;5037201;28;20053;-63
2022/01/25 08:06:42;;;;;;;91.37;49.43;;;;;;;2.05;91.80;103342.44;5036297;28;20484;-63
2022/01/25 08:09:09;;;;;;;99.67;49.17;;;;;;;2.07;91.97;103338.88;5040799;28;20108;-63
2022/01/25 08:11:36;;;;;;;95.23;50.30;;;;;;;2.10;91.61;103345.81;5042872;28;20104;-64
2022/01/25 08:14:12;;;;;;;89.50;49.60;;;;;;;2.10;91.02;103340.56;5041209;28;20036;-63
2022/01/25 08:16:46;;;;;;;92.40;49.00;;;;;;;2.12;91.20;103336.16;5039383;28;20025;-63
2022/01/25 08:19:12;;;;;;;93.30;49.10;;;;;;;2.10;90.14;103341.44;5040385;28;21776;-63
2022/01/25 08:21:40;;;;;;;99.30;50.73;;;;;;;2.12;90.95;103349.25;5039291;28;20453;-62
2022/01/25 08:24:05;;;;;;;91.50;49.60;;;;;;;2.12;90.96;103341.41;5042734;28;20029;-63
2022/01/25 08:26:30;;;;;;;91.97;48.77;;;;;;;2.14;90.91;103347.44;5037945;28;20025;-63
2022/01/25 08:28:56;;;;;;;94.63;50.30;;;;;;;2.17;91.61;103347.34;5039878;28;20029;-63
2022/01/25 08:31:21;;;;;;;96.67;51.67;;;;;;;2.18;90.86;103349.06;5040372;28;20029;-63
2022/01/25 08:33:47;;;;;;;99.37;51.10;;;;;;;2.20;90.56;103351.63;5042937;28;20098;-62
2022/01/25 08:36:12;;;;;;;99.37;52.43;;;;;;;2.22;90.44;103350.69;5038043;28;20041;-63
2022/01/25 08:38:38;;;;;;;99.07;51.83;;;;;;;2.22;89.75;103355.06;5041766;28;20443;-63
2022/01/25 08:41:06;;;;;;;98.10;51.87;;;;;;;2.24;89.54;103356.75;5039190;28;20033;-63
2022/01/25 08:43:31;;;;;;;100.07;52.27;;;;;;;2.25;89.05;103349.72;5040882;28;21010;-63
2022/01/25 08:45:57;;;;;;;96.70;51.57;;;;;;;2.26;89.32;103349.69;5041937;28;20031;-63
2022/01/25 08:48:22;;;;;;;96.73;51.37;;;;;;;2.29;89.81;103351.38;5038440;28;20128;-63
2022/01/25 08:50:47;;;;;;;102.57;51.93;;;;;;;2.31;89.20;103349.56;5044006;28;20039;-63
2022/01/25 08:53:12;;;;;;;102.83;53.63;;;;;;;2.32;88.57;103356.50;5050429;28;20040;-62
2022/01/25 08:55:38;;;;;;;95.83;52.13;;;;;;;2.31;88.37;103357.41;5052733;28;20037;-63
2022/01/25 08:58:03;;;;;;;99.70;53.83;;;;;;;2.34;88.73;103353.84;5043725;28;20063;-63
2022/01/25 09:00:28;;;;;;;97.90;52.93;;;;;;;2.32;88.53;103350.44;5037735;28;20037;-63
2022/01/25 09:02:54;;;;;;;102.50;52.40;;;;;;;2.31;88.60;103353.97;5039966;28;20033;-63
2022/01/25 09:05:19;;;;;;;100.40;53.20;;;;;;;2.35;88.98;103368.66;5034844;28;20089;-63
2022/01/25 09:07:45;;;;;;;102.37;55.27;;;;;;;2.36;89.24;103365.16;5038629;28;20037;-63
2022/01/25 09:10:10;;;;;;;125.80;61.80;;;;;;;2.35;87.03;103366.91;5041338;28;20037;-64
2022/01/25 09:12:36;;;;;;;116.37;59.87;;;;;;;2.36;87.50;103367.78;5036652;28;20041;-63
2022/01/25 09:15:01;;;;;;;110.20;57.10;;;;;;;2.38;87.68;103363.34;5034434;28;20524;-63
2022/01/25 09:17:26;;;;;;;110.10;58.17;;;;;;;2.40;88.22;103364.16;5033316;28;20033;-63
2022/01/25 09:19:52;;;;;;;113.50;60.87;;;;;;;2.41;88.29;103363.22;5034227;28;20033;-63
2022/01/25 09:22:19;;;;;;;128.57;63.27;;;;;;;2.39;87.06;103363.31;5032845;28;20082;-62
2022/01/25 09:24:44;;;;;;;129.50;64.93;;;;;;;2.40;87.49;103364.16;5034479;28;20025;-63
2022/01/25 09:27:09;;;;;;;123.97;64.27;;;;;;;2.41;87.64;103365.84;5033042;28;20033;-62
2022/01/25 09:29:35;;;;;;;123.53;63.13;;;;;;;2.42;87.09;103370.22;5033200;28;20043;-62
2022/01/25 09:32:01;;;;;;;122.03;62.37;;;;;;;2.41;87.10;103371.09;5030653;28;20035;-63
2022/01/25 09:34:27;;;;;;;125.47;63.67;;;;;;;2.44;87.60;103376.25;5037431;28;20032;-63
2022/01/25 09:36:53;;;;;;;131.90;67.43;;;;;;;2.44;87.34;103373.63;5035655;28;20091;-63
2022/01/25 09:39:18;;;;;;;129.10;64.50;;;;;;;2.47;87.47;103370.06;5032842;28;20377;-63
2022/01/25 09:41:44;;;;;;;123.70;62.37;;;;;;;2.50;87.74;103369.97;5035011;28;20033;-63
2022/01/25 09:44:09;;;;;;;122.17;63.73;;;;;;;2.52;87.29;103366.41;5032643;28;20033;-62
2022/01/25 09:46:34;;;;;;;122.77;62.23;;;;;;;2.55;86.54;103370.69;5030166;28;20042;-63
2022/01/25 09:49:00;;;;;;;125.67;64.00;;;;;;;2.57;87.46;103375.88;5037867;28;20472;-63
2022/01/25 09:51:26;;;;;;;129.03;64.90;;;;;;;2.59;86.74;103374.06;5030860;28;20465;-63
2022/01/25 09:53:52;;;;;;;127.17;64.33;;;;;;;2.61;86.72;103377.53;5032439;28;20038;-62
2022/01/25 09:56:17;;;;;;;131.77;66.20;;;;;;;2.62;86.03;103376.63;5033740;28;20033;-62
2022/01/25 09:58:44;;;;;;;127.80;64.23;;;;;;;2.65;86.50;103381.75;5035689;28;20492;-60
2022/01/25 10:01:11;;;;;;;125.77;64.27;;;;;;;2.68;85.92;103386.91;5041716;28;20048;-60
2022/01/25 10:03:38;;;;;;;118.97;61.00;;;;;;;2.70;85.14;103390.31;5048583;28;20045;-60
2022/01/25 10:06:11;;;;;;;122.87;63.37;;;;;;;2.67;84.92;103382.56;5042358;28;20053;-59
2022/01/25 10:08:37;;;;;;;119.28;62.75;;;;;;;2.70;84.62;103382.47;5030860;28;20029;-60
2022/01/25 10:11:12;;;;;;;116.90;62.00;;;;;;;2.66;84.45;103386.09;5027491;28;20025;-59
2022/01/25 10:13:45;;;;;;;115.75;59.85;;;;;;;2.63;83.49;103381.81;5028699;28;20043;-60
2022/01/25 10:16:11;;;;;;;;;;;;;;;2.78;85.67;103392.72;5035729;28;20693;-60
2022/01/25 10:18:44;;;;;;;117.40;59.00;;;;;;;2.74;84.96;103383.22;5032756;28;20015;-59
2022/01/25 10:21:22;;;;;;;117.80;60.47;;;;;;;2.77;84.34;103388.38;5032586;28;20098;-60
2022/01/25 10:24:04;;;;;;;109.40;59.90;;;;;;;2.79;84.18;103382.19;5035195;28;20044;-60
2022/01/25 10:26:39;;;;;;;124.47;60.30;;;;;;;2.77;84.15;103380.53;5041999;28;20074;-62
2022/01/25 10:29:09;;;;;;;114.40;61.40;;;;;;;2.85;83.54;103390.78;5037786;28;20028;-61
2022/01/25 10:31:38;;;;;;;116.90;61.92;;;;;;;2.84;83.56;103384.66;5039601;28;20114;-60
2022/01/25 10:34:05;;;;;;;115.97;61.40;;;;;;;2.85;83.22;103382.91;5045501;28;20057;-62
2022/01/25 10:36:31;;;;;;;113.78;60.55;;;;;;;2.86;83.46;103382.00;5035949;28;20036;-63
2022/01/25 10:38:57;;;;;;;116.57;61.97;;;;;;;2.87;82.88;103388.97;5037161;28;20029;-63
2022/01/25 10:41:27;;;;;;;113.82;61.20;;;;;;;2.82;83.50;103381.25;5039076;28;20516;-62
2022/01/25 10:43:54;;;;;;;111.30;60.80;;;;;;;2.81;82.70;103384.75;5037121;28;20040;-63
2022/01/25 10:46:22;;;;;;;121.18;62.97;;;;;;;2.86;83.61;103387.25;5033736;28;20024;-62
2022/01/25 10:48:52;;;;;;;116.20;61.63;;;;;;;2.85;83.24;103386.38;5035929;28;20043;-63
2022/01/25 10:51:35;;;;;;;115.30;60.97;;;;;;;2.88;83.46;103380.19;5034488;28;20138;-63
2022/01/25 10:54:10;;;;;;;113.50;61.75;;;;;;;2.89;83.88;103387.13;5036832;28;20032;-63
2022/01/25 10:56:54;;;;;;;117.93;62.40;;;;;;;2.86;83.17;103380.22;5029695;28;20021;-63
2022/01/25 10:59:24;;;;;;;111.30;61.22;;;;;;;2.92;82.70;103381.81;5034713;28;20039;-63
2022/01/25 11:01:51;;;;;;;114.67;61.83;;;;;;;2.92;82.02;103379.19;5032470;28;20037;-62
2022/01/25 11:04:19;;;;;;;115.95;62.53;;;;;;;2.88;81.84;103380.19;5036931;28;20025;-63
2022/01/25 11:06:52;;;;;;;116.07;63.63;;;;;;;2.92;81.59;103387.06;5041369;28;20051;-63
2022/01/25 11:09:18;;;;;;;118.25;61.72;;;;;;;2.95;82.41;103381.72;5032296;28;20057;-62
2022/01/25 11:11:51;;;;;;;118.50;62.45;;;;;;;2.97;82.02;103382.53;5033442;28;20078;-63
2022/01/25 11:17:03;;;;;;;119.28;62.83;;;;;;;2.94;80.85;103385.25;5030959;28;20118;-62
2022/01/25 11:19:29;;;;;;;111.38;61.83;;;;;;;2.94;80.67;103390.47;5031780;28;21389;-62
2022/01/25 11:21:55;;;;;;;111.68;60.75;;;;;;;2.95;81.33;103392.19;5031585;28;20507;-63
2022/01/25 11:24:23;;;;;;;116.20;62.53;;;;;;;2.93;80.41;103394.00;5031412;28;20705;-63
2022/01/25 11:26:50;;;;;;;117.80;62.05;;;;;;;2.92;81.44;103387.91;5031479;28;20060;-62
2022/01/25 11:29:16;;;;;;;114.25;62.80;;;;;;;2.95;82.71;103393.06;5031934;28;20053;-62
2022/01/25 11:31:47;;;;;;;112.53;61.88;;;;;;;2.94;81.57;103390.47;5035097;28;20325;-62
2022/01/25 11:34:14;;;;;;;115.53;62.10;;;;;;;2.87;81.92;103374.09;5033492;28;20030;-62
2022/01/25 11:36:43;;;;;;;119.88;60.90;;;;;;;2.92;81.18;103381.81;5033542;28;20040;-61
2022/01/25 11:39:10;;;;;;;116.40;63.10;;;;;;;2.93;81.36;103386.16;5034740;28;20033;-62
2022/01/25 11:41:35;;;;;;;117.25;60.88;;;;;;;2.98;81.39;103386.88;5029824;28;20411;-63
2022/01/25 11:44:16;;;;;;;116.15;60.90;;;;;;;3.03;81.87;103384.09;5035674;28;20025;-63
2022/01/25 11:46:47;;;;;;;115.97;61.53;;;;;;;2.96;81.29;103381.66;5034439;28;20316;-62
2022/01/25 11:49:17;;;;;;;110.75;60.58;;;;;;;3.00;80.96;103385.03;5031265;28;20047;-63
2022/01/25 11:51:43;;;;;;;111.22;60.20;;;;;;;2.99;80.59;103383.34;5035930;28;20033;-63
2022/01/25 11:54:09;;;;;;;112.68;59.72;;;;;;;2.98;80.97;103380.75;5037065;28;20147;-63
2022/01/25 11:56:36;;;;;;;111.43;60.53;;;;;;;3.00;80.89;103384.19;5045156;28;20111;-63
2022/01/25 11:59:02;;;;;;;111.93;59.88;;;;;;;3.04;81.28;103381.44;5038056;28;20032;-63
2022/01/25 12:01:28;;;;;;;110.38;58.35;;;;;;;3.03;79.66;103382.34;5036748;28;20044;-63
2022/01/25 12:03:59;;;;;;;110.57;61.42;;;;;;;3.00;80.74;103369.31;5036831;28;20036;-63
2022/01/25 12:06:31;;;;;;;115.07;61.38;;;;;;;3.06;80.47;103374.34;5035627;28;20041;-62
2022/01/25 12:12:01;;;;;;;113.80;60.70;;;;;;;3.09;80.51;103369.03;5037852;28;21467;-63
2022/01/25 12:14:39;;;;;;;115.38;62.65;;;;;;;3.10;79.88;103367.25;5040049;28;20033;-61
2022/01/25 12:17:05;;;;;;;114.88;59.63;;;;;;;3.08;80.84;103364.69;5036403;28;20065;-63
2022/01/25 12:19:30;;;;;;;113.57;59.90;;;;;;;3.12;80.54;103372.44;5034950;28;20060;-62
2022/01/25 12:22:03;;;;;;;113.97;59.63;;;;;;;3.07;80.19;103365.59;5048327;28;20033;-62
2022/01/25 12:24:39;;;;;;;110.75;59.50;;;;;;;3.07;80.34;103368.19;5036904;28;20156;-63
2022/01/25 12:27:16;;;;;;;108.35;58.88;;;;;;;3.06;79.52;103369.13;5036332;28;20184;-62
2022/01/25 12:29:47;;;;;;;108.10;58.95;;;;;;;3.06;80.68;103355.16;5036406;28;20025;-62
2022/01/25 12:32:27;;;;;;;114.95;60.45;;;;;;;3.11;79.79;103365.50;5034726;28;20037;-62
2022/01/25 12:35:01;;;;;;;112.47;59.22;;;;;;;3.12;80.81;103361.97;5041370;28;20120;-63
2022/01/25 12:37:45;;;;;;;114.72;60.70;;;;;;;3.17;80.90;103354.81;5038049;28;20401;-62
2022/01/25 12:40:50;;;;;;;110.65;59.30;;;;;;;3.22;81.67;103352.91;5036014;28;20423;-63
2022/01/25 12:43:34;;;;;;;107.60;58.63;;;;;;;3.19;79.82;103343.38;5036294;28;20061;-62
2022/01/25 12:46:07;;;;;;;108.10;59.17;;;;;;;3.14;80.10;103340.03;5036971;28;20053;-62
2022/01/25 12:48:35;;;;;;;114.45;59.75;;;;;;;3.12;80.00;103335.75;5032118;28;20037;-62
2022/01/25 12:51:06;;;;;;;106.18;57.95;;;;;;;3.13;80.61;103342.69;5036973;28;20043;-62
2022/01/25 12:53:33;;;;;;;104.13;58.20;;;;;;;3.13;79.80;103345.31;5036149;28;20163;-62
2022/01/25 12:56:03;;;;;;;104.05;57.92;;;;;;;3.08;80.23;103335.84;5037427;28;20139;-63
2022/01/25 12:58:30;;;;;;;109.63;58.00;;;;;;;3.14;80.79;103339.16;5035984;28;20385;-63
2022/01/25 13:01:00;;;;;;;104.30;58.10;;;;;;;3.12;80.41;103331.38;5034977;28;20064;-63
2022/01/25 13:03:29;;;;;;;105.45;57.35;;;;;;;3.14;80.55;103326.06;5044364;28;20036;-63